This is the latest recevied weather packets stored in our database for station/object W7TTE. If no packets are shown the sender has not sent any weather packets the latest 1 day(s).
| Time | Temp. | Humidity | Pressure | Rain* | Wind** | Luminosity | Snow |
|---|---|---|---|---|---|---|---|
| 1777995159 | 19.44° C | 44% | 1014.5 hPa | 0 mm | 1.79 m/s, 167° | 120 W/m² | - |
| 1777994856 | 19.44° C | 45% | 1014.3 hPa | 0 mm | 0.45 m/s, 186° | 123 W/m² | - |
| 1777994552 | 19.44° C | 44% | 1014.4 hPa | 0 mm | 1.79 m/s, 206° | 164 W/m² | - |
| 1777994251 | 19.44° C | 45% | 1014.6 hPa | 0 mm | 0.45 m/s, 202° | 112 W/m² | - |
| 1777993949 | 19.44° C | 44% | 1014.6 hPa | 0 mm | 0.89 m/s, 204° | 133 W/m² | - |
| 1777993646 | 19.44° C | 44% | 1014.4 hPa | 0 mm | 0 m/s | 120 W/m² | - |
| 1777993344 | 19.44° C | 44% | 1014.3 hPa | 0 mm | 0.89 m/s, 119° | 191 W/m² | - |
| 1777993046 | 19.44° C | 44% | 1014.2 hPa | 0 mm | 0.45 m/s, 201° | 112 W/m² | - |
| 1777992742 | 19.44° C | 44% | 1014.2 hPa | 0 mm | 0 m/s | 120 W/m² | - |
| 1777992439 | 19.44° C | 45% | 1014.3 hPa | 0 mm | 0.45 m/s, 187° | 131 W/m² | - |
| 1777992137 | 19.44° C | 47% | 1014.2 hPa | 0 mm | 0 m/s | 116 W/m² | - |
| 1777991834 | 18.89° C | 48% | 1014 hPa | 0 mm | 0 m/s | 121 W/m² | - |
| 1777991532 | 18.89° C | 48% | 1014.3 hPa | 0 mm | 0 m/s | 149 W/m² | - |
| 1777991228 | 18.89° C | 50% | 1014.1 hPa | 0 mm | 0.45 m/s, 182° | 128 W/m² | - |
| 1777990926 | 18.89° C | 50% | 1014.1 hPa | 0 mm | 0 m/s | 127 W/m² | - |
| 1777990624 | 18.89° C | 51% | 1014.1 hPa | 0 mm | 0 m/s | 94 W/m² | - |
| 1777990320 | 18.89° C | 52% | 1013.9 hPa | 0 mm | 0 m/s | 61 W/m² | - |
| 1777990016 | 18.33° C | 51% | 1014.1 hPa | 0 mm | 0 m/s | 59 W/m² | - |
| 1777989714 | 18.33° C | 54% | 1014.2 hPa | 0 mm | 0 m/s | 59 W/m² | - |
| 1777989409 | 17.78° C | 55% | 1014 hPa | 0 mm | 0.45 m/s, 168° | 58 W/m² | - |
| 1777989106 | 17.78° C | 56% | 1014 hPa | 0 mm | 0 m/s | 49 W/m² | - |
| 1777988802 | 17.78° C | 58% | 1013.8 hPa | 0 mm | 0 m/s | 40 W/m² | - |
| 1777988500 | 17.78° C | 58% | 1013.9 hPa | 0 mm | 0 m/s | 39 W/m² | - |
| 1777988196 | 17.78° C | 59% | 1013.7 hPa | 0 mm | 0.45 m/s, 208° | 47 W/m² | - |
| 1777987893 | 17.78° C | 59% | 1014 hPa | 0 mm | 0 m/s | 30 W/m² | - |
* Rain latest hour (hover to see other rain measurements)
** Current wind speed in m/s (hover to see current wind gust speed)